Algonquin, Illinois
Current Conditions -  °F | °C
As of 3:52 PM on Wednesday 28 Jan 2015 (Local Time) from KDPA Reporting Station
Clear Clear  
Wind Chill: -5°   Ceiling: Unl
Heat Index:   Visibility: 9mi
Dew Point: -6°   Wind: 15mph
Humidity: 64%   Direction: 140°SE
Pressure: 30.03"   Gusts: 22mph
Location:  42.17°N, 88.29°W
Report Text: KDPA 282152Z 14013G19KT 9SM CLR 01/M06 A3003 RMK AO2 SLP179 T00061056
Loading
Personal Weather Stations






























Interactive Weather Map New forecast layout! Learn more

10-Day Weather Forecast

Advertisements
Track Severe Weather on mobile